sensor_id;sensor_type;location;lat;lon;timestamp;temperature;humidity
18143;DHT22;9197;50.930;3.140;2024-03-02T00:01:36;6.40;99.90
18143;DHT22;9197;50.930;3.140;2024-03-02T00:04:04;6.40;99.90
18143;DHT22;9197;50.930;3.140;2024-03-02T00:06:34;6.40;99.90
18143;DHT22;9197;50.930;3.140;2024-03-02T00:09:01;6.40;99.90
18143;DHT22;9197;50.930;3.140;2024-03-02T00:11:28;6.40;99.90
18143;DHT22;9197;50.930;3.140;2024-03-02T00:13:55;6.40;99.90
18143;DHT22;9197;50.930;3.140;2024-03-02T00:16:23;6.40;99.90
18143;DHT22;9197;50.930;3.140;2024-03-02T00:18:51;6.50;99.90
18143;DHT22;9197;50.930;3.140;2024-03-02T00:21:18;6.50;99.90
18143;DHT22;9197;50.930;3.140;2024-03-02T00:23:49;6.40;99.90
18143;DHT22;9197;50.930;3.140;2024-03-02T00:26:17;6.40;99.90
18143;DHT22;9197;50.930;3.140;2024-03-02T00:28:44;6.40;99.90
18143;DHT22;9197;50.930;3.140;2024-03-02T00:31:12;6.40;99.90
18143;DHT22;9197;50.930;3.140;2024-03-02T00:33:42;6.30;99.90
18143;DHT22;9197;50.930;3.140;2024-03-02T00:36:10;6.30;99.90
18143;DHT22;9197;50.930;3.140;2024-03-02T00:38:44;6.30;99.90
18143;DHT22;9197;50.930;3.140;2024-03-02T00:41:20;6.30;99.90
18143;DHT22;9197;50.930;3.140;2024-03-02T00:44:01;6.20;99.90
18143;DHT22;9197;50.930;3.140;2024-03-02T00:46:31;6.20;99.90
18143;DHT22;9197;50.930;3.140;2024-03-02T00:49:00;6.10;99.90
18143;DHT22;9197;50.930;3.140;2024-03-02T00:51:30;6.10;99.90
18143;DHT22;9197;50.930;3.140;2024-03-02T00:53:59;6.10;99.90
18143;DHT22;9197;50.930;3.140;2024-03-02T00:56:28;6.10;99.90
18143;DHT22;9197;50.930;3.140;2024-03-02T00:58:55;6.10;99.90
18143;DHT22;9197;50.930;3.140;2024-03-02T01:01:22;6.10;99.90
18143;DHT22;9197;50.930;3.140;2024-03-02T01:03:50;6.10;99.90
18143;DHT22;9197;50.930;3.140;2024-03-02T01:06:17;6.20;99.90
18143;DHT22;9197;50.930;3.140;2024-03-02T01:08:45;6.10;99.90
18143;DHT22;9197;50.930;3.140;2024-03-02T01:11:12;6.10;99.90
18143;DHT22;9197;50.930;3.140;2024-03-02T01:13:41;6.00;99.90
18143;DHT22;9197;50.930;3.140;2024-03-02T01:16:08;5.90;99.90
18143;DHT22;9197;50.930;3.140;2024-03-02T01:18:35;5.90;99.90
18143;DHT22;9197;50.930;3.140;2024-03-02T01:21:03;5.90;99.90
18143;DHT22;9197;50.930;3.140;2024-03-02T01:23:30;5.90;99.90
18143;DHT22;9197;50.930;3.140;2024-03-02T01:25:57;5.90;99.90
18143;DHT22;9197;50.930;3.140;2024-03-02T01:28:24;5.90;99.90
18143;DHT22;9197;50.930;3.140;2024-03-02T01:30:53;6.00;99.90
18143;DHT22;9197;50.930;3.140;2024-03-02T01:33:20;5.90;99.90
18143;DHT22;9197;50.930;3.140;2024-03-02T01:35:47;5.90;99.90
18143;DHT22;9197;50.930;3.140;2024-03-02T01:38:14;5.90;99.90
18143;DHT22;9197;50.930;3.140;2024-03-02T01:40:42;5.90;99.90
18143;DHT22;9197;50.930;3.140;2024-03-02T01:43:10;6.00;99.90
18143;DHT22;9197;50.930;3.140;2024-03-02T01:45:37;5.90;99.90
18143;DHT22;9197;50.930;3.140;2024-03-02T01:48:06;5.90;99.90
18143;DHT22;9197;50.930;3.140;2024-03-02T01:50:34;6.00;99.90
18143;DHT22;9197;50.930;3.140;2024-03-02T01:53:02;6.00;99.90
18143;DHT22;9197;50.930;3.140;2024-03-02T01:55:29;6.00;99.90
18143;DHT22;9197;50.930;3.140;2024-03-02T01:57:56;5.90;99.90
18143;DHT22;9197;50.930;3.140;2024-03-02T02:00:24;6.00;99.90
18143;DHT22;9197;50.930;3.140;2024-03-02T02:02:52;6.00;99.90
18143;DHT22;9197;50.930;3.140;2024-03-02T02:05:21;6.00;99.90
18143;DHT22;9197;50.930;3.140;2024-03-02T02:07:48;6.00;99.90
18143;DHT22;9197;50.930;3.140;2024-03-02T02:10:15;6.00;99.90
18143;DHT22;9197;50.930;3.140;2024-03-02T02:12:42;6.00;99.90
18143;DHT22;9197;50.930;3.140;2024-03-02T02:15:25;6.00;99.90
18143;DHT22;9197;50.930;3.140;2024-03-02T02:17:52;6.00;99.90
18143;DHT22;9197;50.930;3.140;2024-03-02T02:20:21;6.00;99.90
18143;DHT22;9197;50.930;3.140;2024-03-02T02:22:59;6.00;99.90
18143;DHT22;9197;50.930;3.140;2024-03-02T02:25:26;6.00;99.90
18143;DHT22;9197;50.930;3.140;2024-03-02T02:27:54;6.00;99.90
18143;DHT22;9197;50.930;3.140;2024-03-02T02:30:23;6.00;99.90
18143;DHT22;9197;50.930;3.140;2024-03-02T02:32:50;6.00;99.90
18143;DHT22;9197;50.930;3.140;2024-03-02T02:35:17;5.90;99.90
18143;DHT22;9197;50.930;3.140;2024-03-02T02:37:44;5.90;99.90
18143;DHT22;9197;50.930;3.140;2024-03-02T02:40:14;5.90;99.90
18143;DHT22;9197;50.930;3.140;2024-03-02T02:42:41;5.90;99.90
18143;DHT22;9197;50.930;3.140;2024-03-02T02:45:08;5.90;99.90
18143;DHT22;9197;50.930;3.140;2024-03-02T02:47:36;5.90;99.90
18143;DHT22;9197;50.930;3.140;2024-03-02T02:50:04;5.90;99.90
18143;DHT22;9197;50.930;3.140;2024-03-02T02:52:34;5.90;99.90
18143;DHT22;9197;50.930;3.140;2024-03-02T02:55:03;5.90;99.90
18143;DHT22;9197;50.930;3.140;2024-03-02T02:57:33;5.80;99.90
18143;DHT22;9197;50.930;3.140;2024-03-02T03:00:04;5.80;99.90
18143;DHT22;9197;50.930;3.140;2024-03-02T03:02:36;5.80;99.90
18143;DHT22;9197;50.930;3.140;2024-03-02T03:05:04;5.80;99.90
18143;DHT22;9197;50.930;3.140;2024-03-02T03:07:32;5.80;99.90
18143;DHT22;9197;50.930;3.140;2024-03-02T03:09:59;5.70;99.90
18143;DHT22;9197;50.930;3.140;2024-03-02T03:12:27;5.70;99.90
18143;DHT22;9197;50.930;3.140;2024-03-02T03:14:55;5.70;99.90
18143;DHT22;9197;50.930;3.140;2024-03-02T03:17:23;5.70;99.90
18143;DHT22;9197;50.930;3.140;2024-03-02T03:19:50;5.80;99.90
18143;DHT22;9197;50.930;3.140;2024-03-02T03:22:17;5.80;99.90
18143;DHT22;9197;50.930;3.140;2024-03-02T03:24:44;5.80;99.90
18143;DHT22;9197;50.930;3.140;2024-03-02T03:27:11;5.80;99.90
18143;DHT22;9197;50.930;3.140;2024-03-02T03:29:38;5.80;99.90
18143;DHT22;9197;50.930;3.140;2024-03-02T03:32:07;5.90;99.90
18143;DHT22;9197;50.930;3.140;2024-03-02T03:34:35;5.90;99.90
18143;DHT22;9197;50.930;3.140;2024-03-02T03:37:02;5.90;99.90
18143;DHT22;9197;50.930;3.140;2024-03-02T03:39:29;5.90;99.90
18143;DHT22;9197;50.930;3.140;2024-03-02T03:41:56;5.90;99.90
18143;DHT22;9197;50.930;3.140;2024-03-02T03:44:24;5.90;99.90
18143;DHT22;9197;50.930;3.140;2024-03-02T03:46:51;5.90;99.90
18143;DHT22;9197;50.930;3.140;2024-03-02T03:49:19;5.90;99.90
18143;DHT22;9197;50.930;3.140;2024-03-02T03:51:46;5.90;99.90
18143;DHT22;9197;50.930;3.140;2024-03-02T03:54:13;5.90;99.90
18143;DHT22;9197;50.930;3.140;2024-03-02T03:56:40;5.80;99.90
18143;DHT22;9197;50.930;3.140;2024-03-02T03:59:08;5.80;99.90
18143;DHT22;9197;50.930;3.140;2024-03-02T04:01:35;5.80;99.90
18143;DHT22;9197;50.930;3.140;2024-03-02T04:04:02;5.80;99.90
18143;DHT22;9197;50.930;3.140;2024-03-02T04:06:30;5.80;99.90
18143;DHT22;9197;50.930;3.140;2024-03-02T04:08:57;5.80;99.90
18143;DHT22;9197;50.930;3.140;2024-03-02T04:11:24;5.80;99.90
18143;DHT22;9197;50.930;3.140;2024-03-02T04:13:52;5.80;99.90
18143;DHT22;9197;50.930;3.140;2024-03-02T04:16:19;5.80;99.90
18143;DHT22;9197;50.930;3.140;2024-03-02T04:18:46;5.70;99.90
18143;DHT22;9197;50.930;3.140;2024-03-02T04:21:13;5.70;99.90
18143;DHT22;9197;50.930;3.140;2024-03-02T04:23:41;5.70;99.90
18143;DHT22;9197;50.930;3.140;2024-03-02T04:26:08;5.70;99.90
18143;DHT22;9197;50.930;3.140;2024-03-02T04:28:36;5.70;99.90
18143;DHT22;9197;50.930;3.140;2024-03-02T04:31:03;5.70;99.90
18143;DHT22;9197;50.930;3.140;2024-03-02T04:33:30;5.70;99.90
18143;DHT22;9197;50.930;3.140;2024-03-02T04:35:57;5.70;99.90
18143;DHT22;9197;50.930;3.140;2024-03-02T04:38:24;5.70;99.90
18143;DHT22;9197;50.930;3.140;2024-03-02T04:40:53;5.70;99.90
18143;DHT22;9197;50.930;3.140;2024-03-02T04:43:20;5.60;99.90
18143;DHT22;9197;50.930;3.140;2024-03-02T04:45:47;5.70;99.90
18143;DHT22;9197;50.930;3.140;2024-03-02T04:48:14;5.70;99.90
18143;DHT22;9197;50.930;3.140;2024-03-02T04:50:41;5.70;99.90
18143;DHT22;9197;50.930;3.140;2024-03-02T04:53:08;5.60;99.90
18143;DHT22;9197;50.930;3.140;2024-03-02T04:55:35;5.60;99.90
18143;DHT22;9197;50.930;3.140;2024-03-02T04:58:30;5.60;99.90
18143;DHT22;9197;50.930;3.140;2024-03-02T05:00:57;5.60;99.90
18143;DHT22;9197;50.930;3.140;2024-03-02T05:03:24;5.60;99.90
18143;DHT22;9197;50.930;3.140;2024-03-02T05:05:51;5.60;99.90
18143;DHT22;9197;50.930;3.140;2024-03-02T05:08:18;5.60;99.90
18143;DHT22;9197;50.930;3.140;2024-03-02T05:10:45;5.60;99.90
18143;DHT22;9197;50.930;3.140;2024-03-02T05:13:13;5.50;99.90
18143;DHT22;9197;50.930;3.140;2024-03-02T05:15:40;5.60;99.90
18143;DHT22;9197;50.930;3.140;2024-03-02T05:18:07;5.60;99.90
18143;DHT22;9197;50.930;3.140;2024-03-02T05:20:34;5.60;99.90
18143;DHT22;9197;50.930;3.140;2024-03-02T05:23:01;5.50;99.90
18143;DHT22;9197;50.930;3.140;2024-03-02T05:25:28;5.50;99.90
18143;DHT22;9197;50.930;3.140;2024-03-02T05:27:55;5.50;99.90
18143;DHT22;9197;50.930;3.140;2024-03-02T05:30:22;5.50;99.90
18143;DHT22;9197;50.930;3.140;2024-03-02T05:32:53;5.50;99.90
18143;DHT22;9197;50.930;3.140;2024-03-02T05:35:20;5.50;99.90
18143;DHT22;9197;50.930;3.140;2024-03-02T05:37:47;5.50;99.90
18143;DHT22;9197;50.930;3.140;2024-03-02T05:40:14;5.50;99.90
18143;DHT22;9197;50.930;3.140;2024-03-02T05:42:41;5.50;99.90
18143;DHT22;9197;50.930;3.140;2024-03-02T05:45:08;5.50;99.90
18143;DHT22;9197;50.930;3.140;2024-03-02T05:47:36;5.50;99.90
18143;DHT22;9197;50.930;3.140;2024-03-02T05:50:06;5.50;99.90
18143;DHT22;9197;50.930;3.140;2024-03-02T05:52:34;5.50;99.90
18143;DHT22;9197;50.930;3.140;2024-03-02T05:55:01;5.50;99.90
18143;DHT22;9197;50.930;3.140;2024-03-02T05:57:28;5.50;99.90
18143;DHT22;9197;50.930;3.140;2024-03-02T06:00:15;5.50;99.90
18143;DHT22;9197;50.930;3.140;2024-03-02T06:02:43;5.50;99.90
18143;DHT22;9197;50.930;3.140;2024-03-02T06:05:12;5.50;99.90
18143;DHT22;9197;50.930;3.140;2024-03-02T06:07:40;5.50;99.90
18143;DHT22;9197;50.930;3.140;2024-03-02T06:10:08;5.50;99.90
18143;DHT22;9197;50.930;3.140;2024-03-02T06:12:35;5.50;99.90
18143;DHT22;9197;50.930;3.140;2024-03-02T06:15:03;5.50;99.90
18143;DHT22;9197;50.930;3.140;2024-03-02T06:17:30;5.50;99.90
18143;DHT22;9197;50.930;3.140;2024-03-02T06:19:57;5.50;99.90
18143;DHT22;9197;50.930;3.140;2024-03-02T06:22:26;5.50;99.90
18143;DHT22;9197;50.930;3.140;2024-03-02T06:24:53;5.50;99.90
18143;DHT22;9197;50.930;3.140;2024-03-02T06:27:20;5.50;99.90
18143;DHT22;9197;50.930;3.140;2024-03-02T06:29:47;5.50;99.90
18143;DHT22;9197;50.930;3.140;2024-03-02T06:32:14;5.50;99.90
18143;DHT22;9197;50.930;3.140;2024-03-02T06:34:41;5.50;99.90
18143;DHT22;9197;50.930;3.140;2024-03-02T06:37:08;5.50;99.90
18143;DHT22;9197;50.930;3.140;2024-03-02T06:39:37;5.50;99.90
18143;DHT22;9197;50.930;3.140;2024-03-02T06:42:04;5.50;99.90
18143;DHT22;9197;50.930;3.140;2024-03-02T06:44:31;5.50;99.90
18143;DHT22;9197;50.930;3.140;2024-03-02T06:46:58;5.50;99.90
18143;DHT22;9197;50.930;3.140;2024-03-02T06:49:25;5.50;99.90
18143;DHT22;9197;50.930;3.140;2024-03-02T06:51:52;5.50;99.90
18143;DHT22;9197;50.930;3.140;2024-03-02T06:54:19;5.50;99.90
18143;DHT22;9197;50.930;3.140;2024-03-02T06:56:48;5.60;99.90
18143;DHT22;9197;50.930;3.140;2024-03-02T06:59:15;5.60;99.90
18143;DHT22;9197;50.930;3.140;2024-03-02T07:01:42;5.60;99.90
18143;DHT22;9197;50.930;3.140;2024-03-02T07:04:09;5.60;99.90
18143;DHT22;9197;50.930;3.140;2024-03-02T07:06:36;5.60;99.90
18143;DHT22;9197;50.930;3.140;2024-03-02T07:09:03;5.70;99.90
18143;DHT22;9197;50.930;3.140;2024-03-02T07:11:31;5.70;99.90
18143;DHT22;9197;50.930;3.140;2024-03-02T07:13:59;5.80;99.90
18143;DHT22;9197;50.930;3.140;2024-03-02T07:16:27;5.80;99.90
18143;DHT22;9197;50.930;3.140;2024-03-02T07:18:58;5.80;99.90
18143;DHT22;9197;50.930;3.140;2024-03-02T07:21:27;5.90;99.90
18143;DHT22;9197;50.930;3.140;2024-03-02T07:23:54;5.90;99.90
18143;DHT22;9197;50.930;3.140;2024-03-02T07:26:21;5.90;99.90
18143;DHT22;9197;50.930;3.140;2024-03-02T07:28:49;6.00;99.90
18143;DHT22;9197;50.930;3.140;2024-03-02T07:31:17;6.00;99.90
18143;DHT22;9197;50.930;3.140;2024-03-02T07:33:45;6.00;99.90
18143;DHT22;9197;50.930;3.140;2024-03-02T07:36:13;6.00;99.90
18143;DHT22;9197;50.930;3.140;2024-03-02T07:38:40;6.00;99.90
18143;DHT22;9197;50.930;3.140;2024-03-02T07:41:08;6.10;99.90
18143;DHT22;9197;50.930;3.140;2024-03-02T07:43:37;6.10;99.90
18143;DHT22;9197;50.930;3.140;2024-03-02T07:46:04;6.20;99.90
18143;DHT22;9197;50.930;3.140;2024-03-02T07:48:33;6.20;99.90
18143;DHT22;9197;50.930;3.140;2024-03-02T07:51:00;6.20;99.90
18143;DHT22;9197;50.930;3.140;2024-03-02T07:53:28;6.30;99.90
18143;DHT22;9197;50.930;3.140;2024-03-02T07:55:55;6.40;99.90
18143;DHT22;9197;50.930;3.140;2024-03-02T07:58:27;6.50;99.90
18143;DHT22;9197;50.930;3.140;2024-03-02T08:00:54;6.90;99.90
18143;DHT22;9197;50.930;3.140;2024-03-02T08:03:22;7.60;99.90
18143;DHT22;9197;50.930;3.140;2024-03-02T08:05:50;8.20;99.90
18143;DHT22;9197;50.930;3.140;2024-03-02T08:08:17;8.60;99.90
18143;DHT22;9197;50.930;3.140;2024-03-02T08:10:44;9.00;99.90
18143;DHT22;9197;50.930;3.140;2024-03-02T08:13:11;9.50;99.90
18143;DHT22;9197;50.930;3.140;2024-03-02T08:15:38;9.80;99.90
18143;DHT22;9197;50.930;3.140;2024-03-02T08:18:05;10.00;99.90
18143;DHT22;9197;50.930;3.140;2024-03-02T08:20:33;10.20;99.90
18143;DHT22;9197;50.930;3.140;2024-03-02T08:23:02;10.30;99.90
18143;DHT22;9197;50.930;3.140;2024-03-02T08:25:29;9.90;99.90
18143;DHT22;9197;50.930;3.140;2024-03-02T08:27:56;9.60;99.90
18143;DHT22;9197;50.930;3.140;2024-03-02T08:30:23;9.50;99.90
18143;DHT22;9197;50.930;3.140;2024-03-02T08:32:50;9.40;99.90
18143;DHT22;9197;50.930;3.140;2024-03-02T08:35:17;9.20;99.90
18143;DHT22;9197;50.930;3.140;2024-03-02T08:37:44;9.00;99.90
18143;DHT22;9197;50.930;3.140;2024-03-02T08:40:13;9.20;99.90
18143;DHT22;9197;50.930;3.140;2024-03-02T08:42:40;9.20;99.90
18143;DHT22;9197;50.930;3.140;2024-03-02T08:45:08;9.00;99.90
18143;DHT22;9197;50.930;3.140;2024-03-02T08:47:35;8.80;99.90
18143;DHT22;9197;50.930;3.140;2024-03-02T08:50:02;8.80;99.90
18143;DHT22;9197;50.930;3.140;2024-03-02T08:52:30;8.80;99.90
18143;DHT22;9197;50.930;3.140;2024-03-02T08:54:57;8.70;99.90
18143;DHT22;9197;50.930;3.140;2024-03-02T08:57:25;8.40;99.90
18143;DHT22;9197;50.930;3.140;2024-03-02T08:59:53;8.30;99.90
18143;DHT22;9197;50.930;3.140;2024-03-02T09:02:20;8.10;99.90
18143;DHT22;9197;50.930;3.140;2024-03-02T09:04:47;8.20;99.90
18143;DHT22;9197;50.930;3.140;2024-03-02T09:07:14;8.20;99.90
18143;DHT22;9197;50.930;3.140;2024-03-02T09:09:41;8.20;99.90
18143;DHT22;9197;50.930;3.140;2024-03-02T09:12:08;8.50;99.90
18143;DHT22;9197;50.930;3.140;2024-03-02T09:14:37;8.60;99.90
18143;DHT22;9197;50.930;3.140;2024-03-02T09:17:04;8.70;99.90
18143;DHT22;9197;50.930;3.140;2024-03-02T09:19:31;8.50;99.90
18143;DHT22;9197;50.930;3.140;2024-03-02T09:21:58;8.30;99.90
18143;DHT22;9197;50.930;3.140;2024-03-02T09:24:27;8.60;99.90
18143;DHT22;9197;50.930;3.140;2024-03-02T09:31:50;8.20;99.90
18143;DHT22;9197;50.930;3.140;2024-03-02T09:34:17;8.20;99.90
18143;DHT22;9197;50.930;3.140;2024-03-02T09:36:44;8.30;99.90
18143;DHT22;9197;50.930;3.140;2024-03-02T09:39:11;8.40;99.90
18143;DHT22;9197;50.930;3.140;2024-03-02T09:41:38;8.40;99.90
18143;DHT22;9197;50.930;3.140;2024-03-02T09:44:06;8.40;99.90
18143;DHT22;9197;50.930;3.140;2024-03-02T09:46:33;8.40;99.90
18143;DHT22;9197;50.930;3.140;2024-03-02T09:49:03;8.40;99.90
18143;DHT22;9197;50.930;3.140;2024-03-02T09:51:31;8.40;99.90
18143;DHT22;9197;50.930;3.140;2024-03-02T09:54:01;8.40;99.90
18143;DHT22;9197;50.930;3.140;2024-03-02T09:56:28;8.50;99.90
18143;DHT22;9197;50.930;3.140;2024-03-02T09:58:55;8.50;99.90
18143;DHT22;9197;50.930;3.140;2024-03-02T10:01:22;8.60;99.90
18143;DHT22;9197;50.930;3.140;2024-03-02T10:03:49;8.70;99.90
18143;DHT22;9197;50.930;3.140;2024-03-02T10:06:22;8.90;99.90
18143;DHT22;9197;50.930;3.140;2024-03-02T10:08:49;9.00;99.90
18143;DHT22;9197;50.930;3.140;2024-03-02T10:11:27;9.20;99.90
18143;DHT22;9197;50.930;3.140;2024-03-02T10:14:08;9.50;99.90
18143;DHT22;9197;50.930;3.140;2024-03-02T10:16:36;9.60;99.90
18143;DHT22;9197;50.930;3.140;2024-03-02T10:19:17;9.60;99.90
18143;DHT22;9197;50.930;3.140;2024-03-02T10:21:46;9.60;99.90
18143;DHT22;9197;50.930;3.140;2024-03-02T10:24:13;9.70;99.90
18143;DHT22;9197;50.930;3.140;2024-03-02T10:26:40;9.50;99.90
